createdAt,value
2022-12-24T00:01:05.419Z,8.20
2022-12-24T00:03:33.195Z,8.20
2022-12-24T00:06:04.061Z,8.20
2022-12-24T00:08:31.126Z,8.30
2022-12-24T00:10:58.135Z,8.30
2022-12-24T00:13:25.356Z,8.20
2022-12-24T00:15:52.372Z,8.20
2022-12-24T00:18:19.488Z,8.20
2022-12-24T00:20:50.214Z,8.20
2022-12-24T00:23:18.552Z,8.20
2022-12-24T00:25:46.672Z,8.20
2022-12-24T00:28:14.588Z,8.20
2022-12-24T00:30:42.665Z,8.10
2022-12-24T00:33:10.131Z,8.10
2022-12-24T00:35:39.156Z,8.10
2022-12-24T00:38:06.856Z,8.10
2022-12-24T00:40:34.280Z,8.10
2022-12-24T00:43:01.512Z,8.00
2022-12-24T00:45:28.487Z,8.10
2022-12-24T00:47:55.534Z,8.20
2022-12-24T00:50:22.511Z,8.10
2022-12-24T00:52:49.850Z,8.20
2022-12-24T00:55:17.116Z,8.20
2022-12-24T00:57:44.044Z,8.20
2022-12-24T01:00:11.340Z,8.20
2022-12-24T01:02:38.706Z,8.20
2022-12-24T01:05:12.177Z,8.20
2022-12-24T01:07:41.769Z,8.20
2022-12-24T01:10:09.974Z,8.20
2022-12-24T01:12:37.348Z,8.20
2022-12-24T01:15:05.762Z,8.20
2022-12-24T01:17:34.687Z,8.20
2022-12-24T01:20:02.092Z,8.20
2022-12-24T01:22:29.350Z,8.20
2022-12-24T01:24:56.345Z,8.10
2022-12-24T01:27:23.591Z,8.20
2022-12-24T01:29:50.661Z,8.30
2022-12-24T01:32:17.677Z,8.30
2022-12-24T01:34:44.649Z,8.30
2022-12-24T01:37:11.722Z,8.30
2022-12-24T01:39:38.725Z,8.20
2022-12-24T01:42:50.420Z,8.30
2022-12-24T01:45:38.876Z,8.30
2022-12-24T01:48:34.325Z,8.40
2022-12-24T01:51:27.596Z,8.40
2022-12-24T01:54:03.738Z,8.30
2022-12-24T01:56:32.581Z,8.30
2022-12-24T01:59:08.509Z,8.20
2022-12-24T02:01:36.142Z,8.20
2022-12-24T02:04:12.477Z,8.10
2022-12-24T02:06:39.564Z,8.10
2022-12-24T02:09:07.319Z,8.10
2022-12-24T02:11:44.740Z,8.10
2022-12-24T02:14:13.287Z,8.10
2022-12-24T02:16:58.798Z,8.10
2022-12-24T02:19:43.725Z,8.00
2022-12-24T02:22:31.647Z,8.00
2022-12-24T02:25:31.045Z,8.00
2022-12-24T02:28:11.080Z,8.00
2022-12-24T02:31:03.243Z,8.00
2022-12-24T02:33:47.830Z,8.00
2022-12-24T02:36:23.433Z,8.00
2022-12-24T02:38:59.632Z,8.00
2022-12-24T02:41:53.645Z,8.10
2022-12-24T02:44:25.636Z,8.10
2022-12-24T02:46:53.349Z,8.20
2022-12-24T02:49:20.402Z,8.30
2022-12-24T02:51:47.501Z,8.30
2022-12-24T02:54:15.797Z,8.30
2022-12-24T02:56:52.439Z,8.40
2022-12-24T02:59:32.698Z,8.30
2022-12-24T03:02:11.535Z,8.30
2022-12-24T03:04:41.304Z,8.20
2022-12-24T03:07:15.946Z,8.20
2022-12-24T03:10:04.264Z,8.20
2022-12-24T03:12:38.034Z,8.20
2022-12-24T03:15:07.076Z,8.30
2022-12-24T03:17:38.273Z,8.30
2022-12-24T03:20:08.407Z,8.40
2022-12-24T03:22:36.286Z,8.40
2022-12-24T03:25:03.729Z,8.30
2022-12-24T03:27:33.289Z,8.30
2022-12-24T03:30:00.574Z,8.20
2022-12-24T03:32:32.218Z,8.20
2022-12-24T03:34:59.292Z,8.20
2022-12-24T03:37:27.287Z,8.30
2022-12-24T03:39:54.262Z,8.30
2022-12-24T03:42:21.420Z,8.20
2022-12-24T03:44:48.531Z,8.00
2022-12-24T03:47:15.511Z,8.00
2022-12-24T03:49:42.579Z,8.10
2022-12-24T03:52:09.648Z,8.10
2022-12-24T03:54:36.697Z,8.10
2022-12-24T03:57:03.892Z,8.00
2022-12-24T03:59:30.924Z,7.90
2022-12-24T04:01:58.294Z,7.90
2022-12-24T04:04:25.568Z,7.90
2022-12-24T04:06:52.543Z,7.90
2022-12-24T04:09:20.313Z,7.90
2022-12-24T04:11:47.335Z,8.00
2022-12-24T04:14:14.367Z,8.00
2022-12-24T04:16:41.471Z,8.00
2022-12-24T04:19:08.560Z,8.10
2022-12-24T04:21:35.595Z,8.20
2022-12-24T04:24:02.738Z,8.20
2022-12-24T04:26:29.725Z,8.30
2022-12-24T04:28:56.815Z,8.30
2022-12-24T04:31:23.828Z,8.30
2022-12-24T04:33:52.715Z,8.30
2022-12-24T04:36:20.659Z,8.40
2022-12-24T04:38:49.016Z,8.40
2022-12-24T04:41:24.961Z,8.40
2022-12-24T04:43:55.728Z,8.40
2022-12-24T04:46:25.930Z,8.50
2022-12-24T04:48:54.609Z,8.50
2022-12-24T04:51:22.380Z,8.50
2022-12-24T04:53:50.012Z,8.50
2022-12-24T04:56:23.123Z,8.50
2022-12-24T04:58:50.617Z,8.60
2022-12-24T05:01:23.020Z,8.50
2022-12-24T05:03:51.041Z,8.50
2022-12-24T05:06:28.776Z,8.40
2022-12-24T05:08:57.320Z,8.40
2022-12-24T05:11:24.709Z,8.30
2022-12-24T05:13:51.999Z,8.20
2022-12-24T05:16:21.030Z,8.20
2022-12-24T05:18:48.330Z,8.20
2022-12-24T05:21:18.667Z,8.20
2022-12-24T05:24:05.146Z,8.20
2022-12-24T05:26:40.381Z,8.10
2022-12-24T05:29:12.498Z,8.20
2022-12-24T05:31:40.447Z,8.30
2022-12-24T05:34:08.492Z,8.40
2022-12-24T05:36:35.779Z,8.40
2022-12-24T05:39:03.283Z,8.40
2022-12-24T05:41:30.674Z,8.40
2022-12-24T05:43:57.678Z,8.50
2022-12-24T05:46:25.573Z,8.50
2022-12-24T05:48:53.310Z,8.50
2022-12-24T05:51:22.543Z,8.50
2022-12-24T05:53:51.496Z,8.40
2022-12-24T05:56:24.205Z,8.40
2022-12-24T05:58:52.249Z,8.50
2022-12-24T06:01:20.420Z,8.60
2022-12-24T06:03:49.559Z,8.50
2022-12-24T06:06:21.180Z,8.50
2022-12-24T06:08:49.159Z,8.60
2022-12-24T06:11:18.342Z,8.70
2022-12-24T06:13:45.658Z,8.70
2022-12-24T06:16:15.579Z,8.70
2022-12-24T06:18:42.821Z,8.70
2022-12-24T06:21:10.476Z,8.60
2022-12-24T06:23:39.917Z,8.50
2022-12-24T06:26:08.310Z,8.50
2022-12-24T06:28:37.613Z,8.50
2022-12-24T06:31:06.626Z,8.40
2022-12-24T06:33:34.995Z,8.40
2022-12-24T06:36:02.345Z,8.30
2022-12-24T06:38:32.291Z,8.30
2022-12-24T06:40:59.722Z,8.30
2022-12-24T06:43:27.019Z,8.20
2022-12-24T06:45:53.944Z,8.30
2022-12-24T06:48:20.932Z,8.30
2022-12-24T06:50:48.055Z,8.40
2022-12-24T06:53:15.015Z,8.30
2022-12-24T06:55:42.115Z,8.30
2022-12-24T06:58:09.382Z,8.40
2022-12-24T07:00:36.693Z,8.40
2022-12-24T07:03:03.848Z,8.50
2022-12-24T07:05:30.923Z,8.60
2022-12-24T07:07:58.017Z,8.80
2022-12-24T07:10:25.744Z,8.90
2022-12-24T07:12:52.713Z,9.00
2022-12-24T07:15:19.858Z,9.20
2022-12-24T07:17:46.932Z,9.20
2022-12-24T07:20:15.293Z,9.20
2022-12-24T07:22:43.108Z,9.10
2022-12-24T07:25:11.156Z,9.10
2022-12-24T07:27:39.088Z,9.20
2022-12-24T07:30:08.538Z,8.90
2022-12-24T07:32:35.681Z,8.90
2022-12-24T07:35:03.325Z,8.90
2022-12-24T07:37:30.361Z,9.00
2022-12-24T07:39:57.402Z,9.10
2022-12-24T07:42:24.492Z,9.30
2022-12-24T07:44:51.647Z,9.40
2022-12-24T07:47:18.864Z,9.50
2022-12-24T07:49:45.888Z,9.60
2022-12-24T07:52:12.862Z,9.70
2022-12-24T07:54:39.877Z,9.90
2022-12-24T07:57:06.952Z,10.00
2022-12-24T07:59:34.007Z,10.20
2022-12-24T08:02:01.179Z,10.30
2022-12-24T08:04:28.311Z,10.50
2022-12-24T08:06:55.339Z,10.70
2022-12-24T08:09:22.584Z,10.60
2022-12-24T08:11:52.221Z,10.70
2022-12-24T08:14:20.176Z,10.80
2022-12-24T08:16:47.333Z,10.90
2022-12-24T08:19:14.372Z,11.10
2022-12-24T08:21:41.543Z,11.20
2022-12-24T08:24:08.713Z,11.20
2022-12-24T08:26:35.783Z,11.30
2022-12-24T08:29:04.116Z,11.40
2022-12-24T08:31:36.502Z,11.50
2022-12-24T08:34:05.770Z,11.60
2022-12-24T08:36:33.423Z,11.80
2022-12-24T08:39:03.742Z,12.00
2022-12-24T08:41:33.023Z,12.20
2022-12-24T08:44:00.506Z,12.30
2022-12-24T08:46:27.963Z,12.30
2022-12-24T08:48:55.158Z,12.10
2022-12-24T08:51:23.343Z,12.00
2022-12-24T08:53:50.687Z,12.10
2022-12-24T08:56:17.853Z,12.30
2022-12-24T08:58:45.091Z,12.40
2022-12-24T09:01:15.172Z,12.40
2022-12-24T09:03:42.541Z,12.40
2022-12-24T09:06:10.677Z,12.30
2022-12-24T09:08:38.145Z,12.20
2022-12-24T09:11:16.572Z,12.20
2022-12-24T09:13:44.874Z,12.20
2022-12-24T09:16:12.426Z,12.20
2022-12-24T09:18:40.041Z,12.40
2022-12-24T09:21:11.471Z,12.40
2022-12-24T09:23:42.487Z,12.20
2022-12-24T09:26:15.299Z,11.90
2022-12-24T09:28:42.493Z,12.10
2022-12-24T09:31:12.405Z,12.20
2022-12-24T09:33:42.293Z,12.30
2022-12-24T09:36:10.163Z,12.30
2022-12-24T09:38:38.429Z,12.40
2022-12-24T09:41:28.285Z,12.40
2022-12-24T09:44:18.332Z,12.40
2022-12-24T09:46:47.732Z,12.50
2022-12-24T09:49:25.840Z,12.50
2022-12-24T09:51:55.980Z,12.50
2022-12-24T09:54:29.014Z,12.50
2022-12-24T09:56:58.826Z,12.40
2022-12-24T09:59:33.596Z,12.50
2022-12-24T10:02:01.307Z,12.50
2022-12-24T10:04:31.358Z,12.40
2022-12-24T10:07:24.999Z,12.50
2022-12-24T10:10:22.691Z,12.50
2022-12-24T10:13:04.892Z,12.50
2022-12-24T10:16:00.656Z,12.60
2022-12-24T10:18:27.722Z,12.60
2022-12-24T10:21:15.502Z,12.70
2022-12-24T10:24:12.076Z,12.80
2022-12-24T10:26:48.710Z,12.90
2022-12-24T10:29:24.929Z,13.00
2022-12-24T10:32:09.110Z,13.10
2022-12-24T10:34:43.928Z,13.30
2022-12-24T10:37:23.544Z,13.50
2022-12-24T10:39:51.051Z,13.50
2022-12-24T10:42:19.137Z,13.40
2022-12-24T10:44:52.214Z,13.40
2022-12-24T10:47:21.457Z,13.40
2022-12-24T10:50:01.305Z,13.30
2022-12-24T10:52:35.634Z,13.40
2022-12-24T10:55:19.900Z,13.40
2022-12-24T10:57:59.975Z,13.40
2022-12-24T11:00:33.756Z,13.40
2022-12-24T11:03:29.075Z,13.40
2022-12-24T11:06:06.482Z,13.30
2022-12-24T11:08:34.603Z,13.30
2022-12-24T11:11:04.881Z,13.40
2022-12-24T11:13:43.464Z,13.40
2022-12-24T11:16:22.475Z,13.50
2022-12-24T11:18:52.820Z,13.50
2022-12-24T11:21:31.045Z,13.50
2022-12-24T11:24:26.307Z,13.50
2022-12-24T11:26:53.440Z,13.50
2022-12-24T11:29:21.740Z,13.60
2022-12-24T11:31:50.426Z,13.50
2022-12-24T11:34:25.257Z,13.40
2022-12-24T11:36:54.775Z,13.40
2022-12-24T11:39:24.856Z,13.30
2022-12-24T11:41:54.230Z,13.30
2022-12-24T11:44:27.370Z,13.30
2022-12-24T11:46:59.263Z,13.30
2022-12-24T11:49:29.534Z,13.30
2022-12-24T11:52:12.129Z,13.20
2022-12-24T11:55:16.356Z,13.20
2022-12-24T11:58:13.127Z,13.20
2022-12-24T12:00:41.760Z,13.20
2022-12-24T12:03:21.368Z,13.30
2022-12-24T12:05:48.693Z,13.10
2022-12-24T12:08:19.178Z,13.20
2022-12-24T12:10:48.578Z,13.10
2022-12-24T12:13:23.754Z,13.10
2022-12-24T12:16:00.097Z,13.00
2022-12-24T12:18:42.813Z,13.00
2022-12-24T12:21:18.320Z,12.90
2022-12-24T12:24:00.938Z,12.80
2022-12-24T12:26:30.427Z,12.90
2022-12-24T12:29:32.316Z,12.90
2022-12-24T12:32:15.170Z,13.00
2022-12-24T12:34:58.625Z,12.90
2022-12-24T12:37:34.058Z,13.00
2022-12-24T12:40:01.370Z,13.00
2022-12-24T12:42:33.169Z,13.00
2022-12-24T12:45:29.024Z,13.10
2022-12-24T12:48:14.291Z,13.20
2022-12-24T12:50:54.866Z,13.30
2022-12-24T12:53:45.149Z,13.20
2022-12-24T12:56:35.760Z,12.90
2022-12-24T12:59:30.176Z,12.70
2022-12-24T13:02:21.897Z,12.60
2022-12-24T13:05:09.823Z,12.60
2022-12-24T13:07:57.058Z,12.70
2022-12-24T13:10:32.995Z,12.80
2022-12-24T13:13:09.581Z,12.90
2022-12-24T13:15:48.600Z,12.90
2022-12-24T13:18:27.816Z,13.00
2022-12-24T13:20:55.253Z,13.00
2022-12-24T13:23:27.285Z,13.00
2022-12-24T13:25:58.854Z,13.00
2022-12-24T13:28:25.785Z,13.00
2022-12-24T13:31:14.049Z,13.00
2022-12-24T13:33:41.081Z,13.00
2022-12-24T13:36:19.329Z,13.00
2022-12-24T13:38:53.747Z,12.90
2022-12-24T13:41:40.708Z,12.90
2022-12-24T13:44:13.247Z,12.80
2022-12-24T13:47:00.088Z,12.80
2022-12-24T13:49:39.113Z,12.80
2022-12-24T13:52:23.865Z,12.80
2022-12-24T13:55:04.537Z,12.80
2022-12-24T13:57:38.736Z,12.80
2022-12-24T14:00:30.249Z,12.80
2022-12-24T14:02:57.544Z,12.70
2022-12-24T14:05:42.934Z,12.70
2022-12-24T14:08:14.565Z,12.70
2022-12-24T14:10:46.166Z,12.80
2022-12-24T14:13:41.025Z,12.70
2022-12-24T14:16:32.457Z,12.80
2022-12-24T14:19:01.672Z,12.80
2022-12-24T14:22:13.940Z,12.80
2022-12-24T14:24:46.690Z,13.00
2022-12-24T14:27:42.475Z,13.00
2022-12-24T14:30:23.819Z,13.00
2022-12-24T14:32:52.258Z,12.90
2022-12-24T14:35:22.077Z,12.90
2022-12-24T14:37:59.955Z,12.90
2022-12-24T14:40:29.985Z,12.80
2022-12-24T14:43:26.290Z,12.80
2022-12-24T14:46:16.234Z,12.80
2022-12-24T14:48:56.467Z,12.80
2022-12-24T14:51:43.906Z,12.80
2022-12-24T14:54:32.151Z,12.80
2022-12-24T14:57:14.526Z,12.70
2022-12-24T14:59:53.982Z,12.80
2022-12-24T15:02:44.223Z,12.80
2022-12-24T15:05:19.580Z,12.70
2022-12-24T15:07:52.642Z,12.80
2022-12-24T15:10:47.054Z,12.80
2022-12-24T15:13:19.874Z,12.80
2022-12-24T15:15:52.546Z,12.80
2022-12-24T15:18:24.407Z,12.90
2022-12-24T15:20:58.530Z,12.90
2022-12-24T15:23:37.497Z,12.90
2022-12-24T15:26:32.147Z,12.80
2022-12-24T15:29:03.572Z,12.60
2022-12-24T15:31:31.743Z,12.50
2022-12-24T15:33:59.751Z,12.50
2022-12-24T15:36:32.990Z,12.50
2022-12-24T15:39:08.942Z,12.50
2022-12-24T15:42:02.437Z,12.50
2022-12-24T15:44:33.060Z,12.50
2022-12-24T15:47:06.903Z,12.50
2022-12-24T15:49:34.736Z,12.50
2022-12-24T15:52:10.994Z,12.50
2022-12-24T15:54:43.538Z,12.40
2022-12-24T15:57:33.537Z,12.40
2022-12-24T16:00:13.115Z,12.40
2022-12-24T16:02:46.987Z,12.40
2022-12-24T16:05:41.441Z,12.40
2022-12-24T16:08:18.120Z,12.40
2022-12-24T16:10:50.878Z,12.40
2022-12-24T16:13:37.326Z,12.40
2022-12-24T16:16:18.911Z,12.30
2022-12-24T16:18:55.887Z,12.30
2022-12-24T16:21:41.665Z,12.30
2022-12-24T16:24:37.280Z,12.30
2022-12-24T16:27:14.943Z,12.30
2022-12-24T16:29:48.444Z,12.30
2022-12-24T16:32:47.336Z,12.30
2022-12-24T16:35:33.854Z,12.30
2022-12-24T16:38:00.954Z,12.40
2022-12-24T16:40:28.400Z,12.30
2022-12-24T16:43:15.746Z,12.30
2022-12-24T16:45:44.285Z,12.40
2022-12-24T16:48:21.154Z,12.40
2022-12-24T16:50:49.372Z,12.40
2022-12-24T16:53:18.085Z,12.40
2022-12-24T16:55:47.968Z,12.50
2022-12-24T16:58:16.657Z,12.50
2022-12-24T17:00:45.041Z,12.50
2022-12-24T17:03:13.548Z,12.50
2022-12-24T17:05:42.793Z,12.50
2022-12-24T17:08:14.947Z,12.50
2022-12-24T17:10:56.207Z,12.50
2022-12-24T17:13:31.212Z,12.40
2022-12-24T17:16:19.575Z,12.30
2022-12-24T17:18:50.469Z,12.30
2022-12-24T17:21:29.773Z,12.30
2022-12-24T17:24:02.921Z,12.30
2022-12-24T17:26:34.278Z,12.30
2022-12-24T17:29:05.664Z,12.30
2022-12-24T17:31:33.748Z,12.30
2022-12-24T17:34:01.142Z,12.30
2022-12-24T17:36:28.142Z,12.30
2022-12-24T17:38:55.241Z,12.30
2022-12-24T17:41:22.515Z,12.30
2022-12-24T17:43:49.851Z,12.40
2022-12-24T17:46:21.792Z,12.40
2022-12-24T17:48:50.256Z,12.40
2022-12-24T17:51:20.870Z,12.50
2022-12-24T17:53:49.440Z,12.50
2022-12-24T17:56:18.010Z,12.50
2022-12-24T17:58:46.667Z,12.40
2022-12-24T18:01:19.657Z,12.30
2022-12-24T18:03:47.962Z,12.20
2022-12-24T18:06:15.581Z,12.20
2022-12-24T18:08:45.777Z,12.10
2022-12-24T18:11:20.503Z,12.10
2022-12-24T18:13:47.937Z,12.00
2022-12-24T18:16:15.159Z,11.80
2022-12-24T18:18:42.311Z,11.80
2022-12-24T18:21:10.460Z,11.70
2022-12-24T18:23:38.199Z,11.60
2022-12-24T18:26:06.219Z,11.70
2022-12-24T18:28:34.039Z,11.60
2022-12-24T18:31:03.578Z,11.70
2022-12-24T18:33:32.034Z,11.70
2022-12-24T18:35:59.146Z,11.70
2022-12-24T18:38:26.407Z,11.70
2022-12-24T18:40:53.687Z,11.80
2022-12-24T18:43:20.780Z,11.80
2022-12-24T18:45:49.029Z,11.80
2022-12-24T18:48:16.428Z,11.70
2022-12-24T18:50:43.552Z,11.70
2022-12-24T18:53:11.358Z,11.70
2022-12-24T18:55:38.619Z,11.60
2022-12-24T18:58:05.739Z,11.50
2022-12-24T19:00:33.045Z,11.40
2022-12-24T19:03:00.343Z,11.30
2022-12-24T19:05:27.722Z,11.20
2022-12-24T19:07:55.412Z,11.20
2022-12-24T19:10:22.426Z,11.10
2022-12-24T19:12:49.677Z,11.00
2022-12-24T19:15:16.966Z,10.90
2022-12-24T19:17:44.416Z,11.00
2022-12-24T19:20:11.844Z,10.90
2022-12-24T19:22:38.882Z,10.90
2022-12-24T19:25:06.851Z,10.80
2022-12-24T19:27:35.401Z,10.70
2022-12-24T19:30:03.001Z,10.80
2022-12-24T19:32:30.356Z,10.70
2022-12-24T19:34:57.693Z,10.70
2022-12-24T19:37:25.291Z,10.60
2022-12-24T19:39:52.318Z,10.60
2022-12-24T19:42:19.381Z,10.50
2022-12-24T19:44:46.436Z,10.40
2022-12-24T19:47:13.482Z,10.40
2022-12-24T19:49:40.529Z,10.30
2022-12-24T19:52:07.458Z,10.20
2022-12-24T19:54:34.503Z,10.20
2022-12-24T19:57:01.547Z,10.10
2022-12-24T19:59:28.638Z,10.10
2022-12-24T20:01:56.392Z,10.10
2022-12-24T20:04:23.573Z,10.00
2022-12-24T20:06:56.156Z,9.90
2022-12-24T20:09:28.248Z,9.90
2022-12-24T20:11:55.474Z,9.90
2022-12-24T20:14:23.007Z,9.90
2022-12-24T20:16:50.239Z,9.90
2022-12-24T20:19:17.321Z,9.80
2022-12-24T20:21:44.539Z,9.80
2022-12-24T20:24:11.742Z,9.70
2022-12-24T20:26:39.187Z,9.70
2022-12-24T20:29:09.331Z,9.60
2022-12-24T20:31:37.494Z,9.50
2022-12-24T20:34:07.550Z,9.50
2022-12-24T20:36:35.490Z,9.40
2022-12-24T20:39:02.729Z,9.40
2022-12-24T20:41:31.246Z,9.40
2022-12-24T20:43:59.343Z,9.30
2022-12-24T20:46:27.175Z,9.30
2022-12-24T20:48:55.729Z,9.30
2022-12-24T20:51:25.556Z,9.30
2022-12-24T20:53:58.358Z,9.30
2022-12-24T20:56:25.871Z,9.20
2022-12-24T20:58:53.194Z,9.30
2022-12-24T21:01:26.273Z,9.20
2022-12-24T21:03:56.531Z,9.20
2022-12-24T21:06:25.228Z,9.20
2022-12-24T21:08:53.952Z,9.20
2022-12-24T21:11:40.869Z,9.30
2022-12-24T21:14:08.331Z,9.40
2022-12-24T21:16:37.582Z,9.50
2022-12-24T21:19:05.952Z,9.60
2022-12-24T21:21:33.897Z,9.60
2022-12-24T21:24:01.964Z,9.60
2022-12-24T21:26:29.195Z,9.70
2022-12-24T21:28:56.365Z,9.70
2022-12-24T21:31:23.496Z,9.70
2022-12-24T21:33:50.689Z,9.70
2022-12-24T21:36:18.283Z,9.70
2022-12-24T21:38:45.998Z,9.80
2022-12-24T21:41:15.869Z,9.80
2022-12-24T21:43:43.466Z,9.80
2022-12-24T21:46:17.760Z,9.80
2022-12-24T21:49:03.838Z,9.70
2022-12-24T21:51:31.338Z,9.70
2022-12-24T21:54:16.994Z,9.70
2022-12-24T21:57:02.778Z,9.70
2022-12-24T21:59:30.156Z,9.80
2022-12-24T22:01:57.888Z,9.80
2022-12-24T22:04:25.879Z,9.80
2022-12-24T22:07:12.149Z,9.90
2022-12-24T22:09:58.674Z,9.90
2022-12-24T22:12:29.802Z,9.90
2022-12-24T22:14:57.151Z,9.90
2022-12-24T22:17:25.830Z,10.10
2022-12-24T22:19:54.716Z,10.10
2022-12-24T22:22:22.952Z,10.10
2022-12-24T22:24:50.005Z,10.20
2022-12-24T22:27:17.181Z,10.30
2022-12-24T22:29:45.063Z,10.30
2022-12-24T22:32:12.120Z,10.30
2022-12-24T22:34:39.178Z,10.30
2022-12-24T22:37:06.406Z,10.30
2022-12-24T22:39:33.557Z,10.20
2022-12-24T22:42:00.834Z,9.90
2022-12-24T22:44:27.959Z,9.80
2022-12-24T22:46:55.164Z,9.80
2022-12-24T22:49:22.385Z,9.90
2022-12-24T22:51:49.651Z,9.90
2022-12-24T22:54:16.868Z,9.80
2022-12-24T22:56:45.132Z,9.80
2022-12-24T22:59:15.589Z,9.80
2022-12-24T23:01:45.673Z,9.80
2022-12-24T23:04:18.871Z,9.80
2022-12-24T23:06:45.782Z,9.80
2022-12-24T23:09:15.940Z,9.90
2022-12-24T23:11:47.902Z,9.90
2022-12-24T23:14:38.506Z,9.80
2022-12-24T23:17:06.255Z,9.80
2022-12-24T23:19:42.934Z,9.70
2022-12-24T23:22:11.140Z,9.70
2022-12-24T23:24:39.390Z,9.80
2022-12-24T23:27:07.049Z,9.90
2022-12-24T23:29:34.411Z,9.80
2022-12-24T23:32:01.719Z,9.80
2022-12-24T23:34:28.854Z,9.80
2022-12-24T23:36:56.458Z,9.70
2022-12-24T23:39:23.694Z,9.60
2022-12-24T23:41:50.686Z,9.60
2022-12-24T23:44:17.852Z,9.60
2022-12-24T23:46:45.003Z,9.60
2022-12-24T23:49:15.705Z,9.70
2022-12-24T23:51:42.775Z,9.70
2022-12-24T23:54:09.941Z,9.70
2022-12-24T23:56:37.072Z,9.70
2022-12-24T23:59:04.352Z,9.70
